Marathon, Canada
Current Conditions -  °F | °C
As of 3:00 AM on Friday 31 Oct 2014 (Local Time) from CYGQ Reporting Station
Light Snow Light Snow  
Wind Chill: 14°   Ceiling: 2500
Heat Index: 25°   Visibility: 3mi
Dew Point: 23°   Wind: 12mph
Humidity: 93%   Direction: 360°N
Pressure: 30.3"   Gusts: NA
Location:  48.76°N, 86.35°W
Report Text: CYGQ 310700Z 36010KT 3SM -SN OVC025 M04/M05 A3030 RMK SC8SLP281
Loading
Personal Weather Stations






























Interactive Weather Map
Tropical Storm Tracking
New forecast layout! Learn more

10-Day Weather Forecast

Advertisements
Track Severe Weather on mobile